This is the latest recevied weather packets stored in our database for station/object DPX206-15. If no packets are shown the sender has not sent any weather packets the latest 10 day(s).
| Time | Temp. | Humidity | Pressure | Rain* | Wind** | Luminosity | Snow |
|---|---|---|---|---|---|---|---|
| 1777482323 | 11.67° C | 39% | 1030 hPa | 0 mm | - | 58 W/m² | - |
| 1777481572 | 11.67° C | 39% | 1029.9 hPa | 0 mm | - | 48 W/m² | - |
| 1777480822 | 12.22° C | 39% | 1029.6 hPa | 0 mm | - | 59 W/m² | - |
| 1777480072 | 12.22° C | 39% | 1029.5 hPa | 0 mm | - | 39 W/m² | - |
| 1777479322 | 12.22° C | 38% | 1030 hPa | 0 mm | - | 62 W/m² | - |
| 1777478572 | 12.22° C | 39% | 1029.6 hPa | 0 mm | - | 91 W/m² | - |
| 1777477821 | 12.78° C | 38% | 1029.8 hPa | 0 mm | - | 233 W/m² | - |
| 1777477071 | 12.78° C | 39% | 1029.6 hPa | 0 mm | - | 263 W/m² | - |
| 1777476321 | 12.78° C | 38% | 1029.7 hPa | 0 mm | - | 279 W/m² | - |
| 1777475570 | 13.33° C | 38% | 1029.7 hPa | 0 mm | - | 328 W/m² | - |
| 1777474820 | 12.78° C | 38% | 1029.9 hPa | 0 mm | - | 45 W/m² | - |
| 1777474070 | 13.33° C | 36% | 1030.1 hPa | 0 mm | - | 45 W/m² | - |
| 1777473319 | 12.78° C | 37% | 1030 hPa | 0 mm | - | 46 W/m² | - |
| 1777472569 | 13.33° C | 37% | 1030.1 hPa | 0 mm | - | 563 W/m² | - |
| 1777471819 | 13.33° C | 35% | 1030.2 hPa | 0 mm | - | 588 W/m² | - |
| 1777471068 | 13.33° C | 36% | 1030.1 hPa | 0 mm | - | 595 W/m² | - |
| 1777470318 | 13.33° C | 34% | 1030.2 hPa | 0 mm | - | 609 W/m² | - |
| 1777469568 | 13.89° C | 36% | 1029.9 hPa | 0 mm | - | 617 W/m² | - |
| 1777468817 | 13.89° C | 35% | 1029.8 hPa | 0 mm | - | 636 W/m² | - |
| 1777468067 | 13.89° C | 35% | 1030.1 hPa | 0 mm | - | 645 W/m² | - |
| 1777467317 | 13.33° C | 35% | 1030 hPa | 0 mm | - | 672 W/m² | - |
| 1777466567 | 13.33° C | 36% | 1029.9 hPa | 0 mm | - | 667 W/m² | - |
| 1777465817 | 13.33° C | 35% | 1030.1 hPa | 0 mm | - | 708 W/m² | - |
| 1777465066 | 13.33° C | 35% | 1030.1 hPa | 0 mm | - | 724 W/m² | - |
| 1777464316 | 13.33° C | 36% | 1030.2 hPa | 0 mm | - | 742 W/m² | - |
* Rain latest hour (hover to see other rain measurements)
** Current wind speed in m/s (hover to see current wind gust speed)